Terminal Aerodrome Forecast
Issued by NWS

Home | Current Version | Previous Version | Text Only | Print | Product List | Glossary On
Versions: 1 2 3 4 5 6 7 8 9 10 11 12 13 14 15 16 17 18
000
FTUS43 KGRB 011200 AAA
TAFATW
TAF AMD
KATW 011248Z 0113/0212 18007KT P6SM VCSH SCT020 BKN100
      WS012/20035KT
      TEMPO 0113/0116 4SM -SHRA BR BKN020
     FM011600 20010G16KT 3SM SHRA VCTS BKN020CB OVC040
     FM011900 24015G22KT P6SM VCSH BKN025 BKN090
     FM020000 27010KT P6SM SCT035 BKN200
     FM020500 27004KT P6SM SCT200=

USA.gov is the U.S. government's official web portal to all federal, state and local government web resources and services.